CheckWX is a tool to help pilots better visualize weather data.  It is not intended as a substitute for an official pre-flight weather briefing.

05:58:33 UTC

KOLY METAR
Olney-Noble Airport
Olney-Noble, Illinois, USA
Current

24 mins ago

KOLY 240535Z AUTO 24009G16KT 10SM BKN075 BKN085 14/14 A2950 RMK AO2 P0001 T01420135
Observed
Feb-24 @ 05:35 UTC
Wind
  • 240° at 9 KTS
  • Gusting to 16 KTS
Visibility
10 SM
Flight Rules
VFR
Cloud Levels
  • Broken at 7,500' AGL
  • Broken at 8,500' AGL
Temperature
14°C / 57°F
Dewpoint
14°C / 57°F
Humidity
100%
Altimeter
29.5" Hg
Pressure
999.02 hPa
Current Rain
0.01"
Previous

49 mins ago

KOLY 240510Z AUTO 21012G23KT 10SM -RA SCT019 BKN075 OVC085 14/14 A2950 RMK AO2 P0001 T01410137
Observed
Feb-24 @ 05:10 UTC
Wind
  • 210° at 12 KTS
  • Gusting to 23 KTS
Visibility
10 SM
Flight Rules
VFR
Conditions
Light Rain
Cloud Levels
  • Scattered at 1,900' AGL
  • Broken at 7,500' AGL
  • Overcast at 8,500' AGL
Temperature
14°C / 57°F
Dewpoint
14°C / 57°F
Humidity
100%
Altimeter
29.5" Hg
Pressure
999.02 hPa
Current Rain
0.01"
Previous

1 hour ago

KOLY 240450Z AUTO 18013KT 10SM -RA SCT010 BKN031 OVC085 14/14 A2949 RMK AO2 T01400140
Observed
Feb-24 @ 04:50 UTC
Wind
  • 180° at 13 KTS
Visibility
10 SM
Flight Rules
VFR
Conditions
Light Rain
Cloud Levels
  • Scattered at 1,000' AGL
  • Broken at 3,100' AGL
  • Overcast at 8,500' AGL
Temperature
14°C / 57°F
Dewpoint
14°C / 57°F
Humidity
100%
Altimeter
29.49" Hg
Pressure
998.62 hPa